Time;durP1;ratioP1;P1;durP2;ratioP2;P2;SDS_P1;SDS_P2;PMS_P1;PMS_P2;Temp;Humidity;BMP_temperature;BMP_pressure;BME280_temperature;BME280_humidity;BME280_pressure;Samples;Min_cycle;Max_cycle;Signal;HPM_P1;HPM_P2
2020/12/22 00:00:52;;;;;;;91.47;35.13;;;;;;;0.38;85.49;101092.36;1743329;80;27825;-71
2020/12/22 00:03:20;;;;;;;80.97;33.53;;;;;;;0.38;85.50;101083.14;1733231;78;25861;-71
2020/12/22 00:05:48;;;;;;;88.80;33.85;;;;;;;0.41;85.51;101083.16;1749628;80;25853;-70
2020/12/22 00:08:18;;;;;;;85.17;34.63;;;;;;;0.41;85.49;101081.83;1732217;78;25871;-71
2020/12/22 00:10:47;;;;;;;87.50;33.00;;;;;;;0.38;85.49;101068.20;1742422;80;25836;-71
2020/12/22 00:13:17;;;;;;;79.87;32.75;;;;;;;0.38;85.52;101064.68;1744894;80;27903;-69
2020/12/22 00:15:47;;;;;;;82.50;34.13;;;;;;;0.41;85.57;101061.63;1753688;78;25771;-70
2020/12/22 00:18:15;;;;;;;80.12;31.55;;;;;;;0.42;85.55;101064.70;1722454;80;25941;-69
2020/12/22 00:20:44;;;;;;;82.12;32.67;;;;;;;0.40;85.53;101063.81;1725852;78;25879;-69
2020/12/22 00:23:14;;;;;;;82.05;33.63;;;;;;;0.39;85.52;101061.17;1732477;80;25847;-69
2020/12/22 00:25:50;;;;;;;76.37;32.60;;;;;;;0.39;85.54;101051.50;1728546;78;28265;-69
2020/12/22 00:28:20;;;;;;;84.83;32.20;;;;;;;0.39;85.50;101049.30;1740881;78;25897;-69
2020/12/22 00:30:50;;;;;;;82.05;32.83;;;;;;;0.36;85.46;101036.11;1748274;80;26115;-69
2020/12/22 00:33:18;;;;;;;78.78;30.85;;;;;;;0.35;85.51;101035.23;1762224;78;26186;-71
2020/12/22 00:35:47;;;;;;;67.85;28.87;;;;;;;0.35;85.47;101030.39;1742026;80;26611;-69
2020/12/22 00:38:15;;;;;;;76.12;32.10;;;;;;;0.33;85.47;101033.02;1767547;78;27861;-69
2020/12/22 00:40:44;;;;;;;79.10;30.25;;;;;;;0.32;85.54;101029.50;1749477;78;25787;-69
2020/12/22 00:43:12;;;;;;;79.35;32.13;;;;;;;0.33;85.53;101026.42;1731397;80;25862;-69
2020/12/22 00:45:40;;;;;;;79.27;31.30;;;;;;;0.36;85.61;101028.20;1726890;79;26401;-69
2020/12/22 00:48:07;;;;;;;69.82;30.77;;;;;;;0.39;85.59;101020.30;1741820;80;26043;-69
2020/12/22 00:50:37;;;;;;;70.65;30.45;;;;;;;0.40;85.56;101028.22;1730162;78;27605;-69
2020/12/22 00:53:05;;;;;;;81.87;31.35;;;;;;;0.42;85.59;101015.03;1744394;80;25816;-68
2020/12/22 00:55:36;;;;;;;76.97;31.00;;;;;;;0.44;85.61;101017.24;1729239;78;26433;-68
2020/12/22 00:58:05;;;;;;;76.33;30.23;;;;;;;0.46;85.60;101002.30;1745299;80;25904;-71
2020/12/22 01:00:34;;;;;;;87.10;32.13;;;;;;;0.48;85.61;100997.92;1743243;78;25767;-69
2020/12/22 01:03:06;;;;;;;79.58;30.25;;;;;;;0.47;85.59;100990.44;1733269;80;27632;-69
2020/12/22 01:05:33;;;;;;;78.40;32.13;;;;;;;0.52;85.68;100987.82;1728715;78;25800;-69
2020/12/22 01:08:02;;;;;;;76.80;31.27;;;;;;;0.54;85.65;100986.95;1733229;80;25874;-69
2020/12/22 01:10:30;;;;;;;74.82;29.55;;;;;;;0.56;85.62;100977.72;1727282;78;25857;-68
2020/12/22 01:12:58;;;;;;;77.37;32.65;;;;;;;0.59;85.61;100981.69;1742693;80;26145;-69
2020/12/22 01:15:26;;;;;;;71.37;28.07;;;;;;;0.59;85.61;100983.00;1738908;78;28423;-68
2020/12/22 01:17:54;;;;;;;75.50;30.27;;;;;;;0.58;85.60;100987.40;1751658;80;25880;-69
2020/12/22 01:20:22;;;;;;;74.47;30.68;;;;;;;0.60;85.60;100988.72;1744326;78;25811;-69
2020/12/22 01:22:50;;;;;;;73.45;30.37;;;;;;;0.62;85.63;100976.42;1743148;80;25799;-69
2020/12/22 01:25:18;;;;;;;78.07;29.20;;;;;;;0.64;85.67;100968.07;1741402;78;25961;-69
2020/12/22 01:27:47;;;;;;;81.63;30.70;;;;;;;0.64;85.60;100959.72;1732419;80;28020;-68
2020/12/22 01:30:15;;;;;;;75.50;28.75;;;;;;;0.65;85.58;100940.81;1742622;80;25852;-69
2020/12/22 01:32:46;;;;;;;71.65;27.55;;;;;;;0.62;85.51;100935.09;1731851;79;26439;-71
2020/12/22 01:35:14;;;;;;;;;;;;;;;0.63;85.57;100931.58;1746992;80;25903;-70
2020/12/22 01:37:42;;;;;;;62.60;25.20;;;;;;;0.65;85.63;100918.39;1734512;78;26020;-68
2020/12/22 01:40:09;;;;;;;69.80;26.52;;;;;;;0.66;85.67;100914.87;1737715;80;27747;-68
2020/12/22 01:42:44;;;;;;;72.22;27.73;;;;;;;0.68;85.61;100910.48;1738177;79;26352;-68
2020/12/22 01:45:13;;;;;;;77.40;29.67;;;;;;;0.70;85.63;100908.73;1717936;81;26015;-69
2020/12/22 01:47:50;;;;;;;71.05;29.67;;;;;;;0.73;85.66;100903.45;1688313;80;26001;-69
2020/12/22 01:50:19;;;;;;;76.07;28.15;;;;;;;0.76;85.69;100906.53;1708846;80;26347;-70
2020/12/22 01:52:50;;;;;;;64.95;27.95;;;;;;;0.78;85.67;100904.34;1704690;82;27708;-69
2020/12/22 01:55:18;;;;;;;78.42;27.77;;;;;;;0.80;85.63;100896.42;1698996;80;30661;-69
2020/12/22 01:57:46;;;;;;;71.80;28.07;;;;;;;0.82;85.65;100891.59;1697045;81;26457;-69
2020/12/22 02:00:14;;;;;;;62.85;26.52;;;;;;;0.84;85.69;100887.19;1700086;82;25864;-69
2020/12/22 02:02:43;;;;;;;58.08;24.35;;;;;;;0.87;85.64;100891.59;1692101;80;26617;-69
2020/12/22 02:05:12;;;;;;;78.78;27.82;;;;;;;0.87;85.63;100887.19;1683863;81;27821;-69
2020/12/22 02:07:40;;;;;;;63.52;26.35;;;;;;;0.88;85.64;100871.80;1695197;80;25776;-71
2020/12/22 02:10:08;;;;;;;65.32;27.95;;;;;;;0.93;85.66;100853.32;1689507;81;26493;-69
2020/12/22 02:12:40;;;;;;;62.95;25.45;;;;;;;0.96;85.68;100845.41;1694926;80;26519;-69
2020/12/22 02:15:09;;;;;;;65.70;26.70;;;;;;;0.98;85.68;100838.36;1702047;82;25943;-69
2020/12/22 02:17:37;;;;;;;64.00;26.87;;;;;;;1.00;85.65;100842.31;1694042;80;27810;-70
2020/12/22 02:20:05;;;;;;;58.48;25.40;;;;;;;0.98;85.62;100832.64;1690352;82;25871;-71
2020/12/22 02:22:40;;;;;;;54.45;23.70;;;;;;;0.98;85.64;100826.05;1683090;81;25784;-68
2020/12/22 02:25:18;;;;;;;58.50;24.05;;;;;;;1.01;85.64;100826.92;1688675;82;25944;-69
2020/12/22 02:27:45;;;;;;;56.92;23.77;;;;;;;1.02;85.67;100821.64;1710008;82;26620;-69
2020/12/22 02:30:13;;;;;;;56.45;23.47;;;;;;;1.04;85.66;100807.12;1697682;82;27839;-69
2020/12/22 02:32:41;;;;;;;63.87;26.48;;;;;;;1.09;85.71;100793.47;1687873;80;26163;-63
2020/12/22 02:35:12;;;;;;;68.33;25.80;;;;;;;1.09;85.66;100777.63;1703874;82;25747;-63
2020/12/22 02:37:40;;;;;;;55.50;22.55;;;;;;;1.08;85.61;100772.80;1699042;80;25841;-62
2020/12/22 02:40:07;;;;;;;57.08;24.63;;;;;;;1.09;85.64;100774.55;1694848;82;27012;-62
2020/12/22 02:42:35;;;;;;;53.38;22.90;;;;;;;1.11;85.67;100770.59;1702043;80;27699;-62
2020/12/22 02:45:03;;;;;;;57.30;23.90;;;;;;;1.12;85.67;100775.86;1746390;80;26678;-63
2020/12/22 02:47:30;;;;;;;56.40;23.47;;;;;;;1.14;85.68;100768.81;1748627;79;25750;-63
2020/12/22 02:49:58;;;;;;;52.85;22.85;;;;;;;1.18;85.72;100772.33;1755653;79;25791;-62
2020/12/22 02:52:28;;;;;;;62.03;24.98;;;;;;;1.20;85.72;100770.12;1742755;79;25962;-63
2020/12/22 02:54:56;;;;;;;56.40;23.92;;;;;;;1.22;85.71;100775.39;1750302;80;26942;-63
2020/12/22 02:57:24;;;;;;;50.12;22.48;;;;;;;1.26;85.75;100779.78;1740227;79;25916;-63
2020/12/22 02:59:52;;;;;;;54.35;22.32;;;;;;;1.30;85.77;100781.52;1750201;80;25950;-63
2020/12/22 03:02:19;;;;;;;48.15;20.23;;;;;;;1.35;85.77;100782.39;1743272;79;26031;-63
2020/12/22 03:04:47;;;;;;;44.40;20.25;;;;;;;1.38;85.76;100770.94;1744019;79;25752;-63
2020/12/22 03:07:15;;;;;;;49.55;21.02;;;;;;;1.42;85.77;100763.44;1733474;79;26020;-63
2020/12/22 03:09:42;;;;;;;39.65;18.85;;;;;;;1.46;85.78;100763.86;1736159;79;26003;-62
2020/12/22 03:12:10;;;;;;;52.90;22.20;;;;;;;1.49;85.75;100757.23;1746861;80;26586;-63
2020/12/22 03:14:38;;;;;;;53.15;22.90;;;;;;;1.52;85.76;100754.14;1751005;79;25865;-63
2020/12/22 03:17:06;;;;;;;52.43;23.87;;;;;;;1.55;85.79;100750.16;1734795;80;26386;-63
2020/12/22 03:19:37;;;;;;;53.80;23.70;;;;;;;1.59;85.76;100742.66;1747044;79;28520;-63
2020/12/22 03:22:05;;;;;;;57.33;24.45;;;;;;;1.63;85.80;100738.23;1737577;80;25783;-63
2020/12/22 03:24:33;;;;;;;56.15;25.50;;;;;;;1.66;85.78;100728.09;1743861;79;26512;-63
2020/12/22 03:27:02;;;;;;;56.98;27.40;;;;;;;1.67;85.76;100719.28;1740844;80;26082;-64
2020/12/22 03:29:35;;;;;;;68.00;29.92;;;;;;;1.68;85.72;100714.44;1745228;79;25863;-63
2020/12/22 03:32:04;;;;;;;66.35;32.58;;;;;;;1.70;85.71;100700.77;1737514;80;27459;-63
2020/12/22 03:34:34;;;;;;;74.97;33.60;;;;;;;1.72;85.69;100693.27;1732841;79;26300;-63
2020/12/22 03:37:02;;;;;;;69.22;34.18;;;;;;;1.74;85.73;100698.54;1741703;80;25724;-63
2020/12/22 03:39:29;;;;;;;66.53;30.62;;;;;;;1.78;85.75;100693.67;1751966;79;26235;-63
2020/12/22 03:41:59;;;;;;;67.78;30.17;;;;;;;1.79;85.73;100679.12;1744447;80;26804;-64
2020/12/22 03:44:28;;;;;;;63.75;29.35;;;;;;;1.81;85.73;100679.99;1724492;79;27818;-63
2020/12/22 03:46:56;;;;;;;55.80;25.10;;;;;;;1.83;85.72;100675.58;1725061;80;26523;-63
2020/12/22 03:49:23;;;;;;;53.20;24.67;;;;;;;1.87;85.75;100665.86;1748135;79;25744;-63
2020/12/22 03:51:53;;;;;;;53.58;23.32;;;;;;;1.89;85.75;100666.28;1748456;80;26553;-63
2020/12/22 03:54:21;;;;;;;43.13;20.37;;;;;;;1.92;85.74;100654.80;1745844;79;25813;-63
2020/12/22 03:56:49;;;;;;;51.68;20.68;;;;;;;1.94;85.70;100657.87;1746113;80;26507;-63
2020/12/22 03:59:19;;;;;;;46.92;19.80;;;;;;;1.97;85.75;100659.61;1739156;79;26691;-63
2020/12/22 04:01:49;;;;;;;46.53;21.15;;;;;;;1.95;85.71;100641.56;1744971;80;26346;-63
2020/12/22 04:04:26;;;;;;;45.75;19.98;;;;;;;2.03;85.74;100650.75;1750565;80;26020;-64
2020/12/22 04:06:54;;;;;;;45.75;19.37;;;;;;;2.07;85.75;100652.48;1690891;81;25845;-63
2020/12/22 04:09:24;;;;;;;41.70;18.45;;;;;;;2.11;85.75;100640.98;1691951;81;28032;-64
2020/12/22 04:11:56;;;;;;;36.67;17.03;;;;;;;2.13;85.71;100631.27;1719602;81;26437;-63
2020/12/22 04:14:24;;;;;;;41.28;18.60;;;;;;;2.15;85.71;100626.40;1699785;81;25815;-63
2020/12/22 04:16:52;;;;;;;45.65;18.73;;;;;;;2.19;85.71;100617.55;1694074;82;26041;-63
2020/12/22 04:19:20;;;;;;;36.73;17.60;;;;;;;2.23;85.74;100619.72;1709291;81;25957;-63
2020/12/22 04:21:48;;;;;;;39.50;17.20;;;;;;;2.26;85.74;100621.89;1702094;81;28402;-63
2020/12/22 04:24:19;;;;;;;34.92;16.75;;;;;;;2.28;85.67;100616.58;1703599;82;25979;-63
2020/12/22 04:26:47;;;;;;;34.95;15.20;;;;;;;2.30;85.72;100618.77;1726792;80;27281;-63
2020/12/22 04:29:18;;;;;;;36.45;16.20;;;;;;;2.32;85.71;100610.81;1698511;82;25869;-63
2020/12/22 04:31:46;;;;;;;;;;;;;;;2.34;85.68;100605.06;1724196;80;26086;-63
2020/12/22 04:34:15;;;;;;;39.08;17.57;;;;;;;2.38;85.69;100600.17;1690525;81;27678;-63
2020/12/22 04:36:42;;;;;;;37.25;17.02;;;;;;;2.41;85.72;100585.59;1713438;80;25809;-63
2020/12/22 04:39:11;;;;;;;39.13;16.45;;;;;;;2.44;85.71;100590.84;1717960;80;25861;-63
2020/12/22 04:41:47;;;;;;;34.05;16.02;;;;;;;2.46;85.68;100580.67;1708043;80;25978;-63
2020/12/22 04:44:18;;;;;;;38.25;16.73;;;;;;;2.49;85.65;100578.44;1706526;80;25892;-63
2020/12/22 04:46:52;;;;;;;32.70;15.63;;;;;;;2.50;85.64;100566.52;1722269;81;27738;-63
2020/12/22 04:49:23;;;;;;;37.40;15.70;;;;;;;2.52;85.63;100575.31;1702732;80;25884;-63
2020/12/22 04:51:52;;;;;;;43.28;16.73;;;;;;;2.55;85.63;100571.31;1702794;82;34977;-63
2020/12/22 04:54:20;;;;;;;39.53;17.32;;;;;;;2.57;85.60;100564.67;1698429;81;25741;-63
2020/12/22 04:56:48;;;;;;;31.62;15.35;;;;;;;2.59;85.61;100568.18;1707837;82;25895;-62
2020/12/22 04:59:20;;;;;;;37.25;15.60;;;;;;;2.60;85.60;100564.16;1709694;82;28224;-63
2020/12/22 05:01:48;;;;;;;33.48;15.75;;;;;;;2.63;85.58;100562.37;1693083;82;26297;-63
2020/12/22 05:04:17;;;;;;;34.92;15.83;;;;;;;2.65;85.61;100558.81;1708619;82;26128;-63
2020/12/22 05:06:46;;;;;;;35.88;17.15;;;;;;;2.67;85.54;100554.82;1701625;81;25708;-63
2020/12/22 05:09:16;;;;;;;34.83;16.65;;;;;;;2.68;85.54;100548.19;1703976;82;25796;-62
2020/12/22 05:11:44;;;;;;;32.58;15.83;;;;;;;2.68;85.54;100540.25;1686353;83;27906;-62
2020/12/22 05:14:13;;;;;;;39.05;14.87;;;;;;;2.69;85.54;100538.48;1686151;83;26251;-62
2020/12/22 05:16:43;;;;;;;30.62;14.38;;;;;;;2.70;85.53;100534.94;1686119;83;25823;-62
2020/12/22 05:19:11;;;;;;;33.23;14.80;;;;;;;2.70;85.51;100527.00;1686500;83;26287;-63
2020/12/22 05:21:39;;;;;;;32.23;14.95;;;;;;;2.70;85.52;100521.70;1686166;83;25848;-65
2020/12/22 05:24:08;;;;;;;33.53;15.13;;;;;;;2.69;85.48;100512.89;1662417;83;27715;-65
2020/12/22 05:26:41;;;;;;;35.85;16.05;;;;;;;2.69;85.50;100519.95;1685871;83;26070;-62
2020/12/22 05:29:18;;;;;;;32.48;15.98;;;;;;;2.71;85.54;100511.55;1700556;83;25806;-63
2020/12/22 05:31:50;;;;;;;34.15;15.93;;;;;;;2.70;85.50;100510.67;1700634;83;25998;-62
2020/12/22 05:34:24;;;;;;;;;;;;;;;2.72;85.53;100505.36;1678886;84;25847;-62
2020/12/22 05:36:52;;;;;;;35.98;14.13;;;;;;;2.73;85.53;100489.45;1686240;83;27886;-64
2020/12/22 05:39:21;;;;;;;33.70;15.80;;;;;;;2.73;85.55;100487.26;1686107;83;25532;-63
2020/12/22 05:41:50;;;;;;;33.48;15.72;;;;;;;2.75;85.57;100480.17;1686244;83;26080;-63
2020/12/22 05:44:22;;;;;;;36.80;16.07;;;;;;;2.73;85.53;100476.67;1686357;83;25774;-63
2020/12/22 05:46:51;;;;;;;28.77;14.28;;;;;;;2.73;85.52;100476.23;1700769;83;25659;-62
2020/12/22 05:49:19;;;;;;;33.20;15.00;;;;;;;2.74;85.56;100470.48;1652751;84;27633;-64
2020/12/22 05:51:47;;;;;;;33.65;14.58;;;;;;;2.75;85.51;100473.11;1700647;83;25990;-67
2020/12/22 05:54:18;;;;;;;38.30;16.15;;;;;;;2.77;85.53;100474.41;1676057;84;25779;-65
2020/12/22 05:56:47;;;;;;;35.40;15.93;;;;;;;2.77;85.55;100474.41;1716174;81;26279;-65
2020/12/22 05:59:23;;;;;;;35.58;16.00;;;;;;;2.77;85.53;100473.96;1719010;81;25749;-65
2020/12/22 06:01:52;;;;;;;35.68;14.43;;;;;;;2.76;85.52;100469.56;1694876;82;27642;-65
2020/12/22 06:04:21;;;;;;;34.45;15.60;;;;;;;2.76;85.56;100462.95;1709595;81;25856;-66
2020/12/22 06:06:53;;;;;;;28.55;12.93;;;;;;;2.76;85.54;100463.40;1700187;82;26054;-68
2020/12/22 06:09:20;;;;;;;37.20;14.85;;;;;;;2.75;85.55;100458.55;1692000;81;25715;-63
2020/12/22 06:11:53;;;;;;;42.15;16.00;;;;;;;2.76;85.63;100456.33;1700080;82;26391;-64
2020/12/22 06:14:26;;;;;;;34.58;14.85;;;;;;;2.79;85.67;100455.41;1710578;80;26141;-63
2020/12/22 06:17:04;;;;;;;33.88;15.50;;;;;;;2.79;85.62;100445.70;1702739;82;25897;-64
2020/12/22 06:19:38;;;;;;;36.33;16.57;;;;;;;2.79;85.62;100439.08;1717134;80;26848;-65
2020/12/22 06:22:19;;;;;;;35.28;15.08;;;;;;;2.80;85.66;100435.98;1736187;80;25898;-65
2020/12/22 06:24:52;;;;;;;30.75;15.55;;;;;;;2.78;85.61;100426.75;1693740;83;25731;-65
2020/12/22 06:27:19;;;;;;;28.95;12.95;;;;;;;2.78;85.71;100416.61;1693580;83;28334;-64
2020/12/22 06:29:47;;;;;;;32.40;14.45;;;;;;;2.78;85.73;100410.88;1693622;83;25993;-64
2020/12/22 06:32:28;;;;;;;34.85;16.00;;;;;;;2.78;85.72;100394.11;1693781;83;26037;-65
2020/12/22 06:35:17;;;;;;;29.80;14.25;;;;;;;2.78;85.78;100394.98;1693756;83;25688;-64
2020/12/22 06:37:47;;;;;;;35.48;15.10;;;;;;;2.80;85.79;100380.41;1693750;83;25724;-65
2020/12/22 06:40:19;;;;;;;32.53;15.10;;;;;;;2.79;85.78;100372.92;1693674;83;27908;-65
2020/12/22 06:42:47;;;;;;;34.45;13.03;;;;;;;2.80;85.82;100367.17;1693717;83;26177;-65
2020/12/22 06:45:36;;;;;;;28.55;13.62;;;;;;;2.81;85.90;100359.66;1693631;83;25704;-66
2020/12/22 06:48:07;;;;;;;29.27;15.13;;;;;;;2.81;85.92;100363.18;1693660;83;25774;-67
2020/12/22 06:50:44;;;;;;;49.67;20.40;;;;;;;2.84;85.94;100356.97;1690756;83;26016;-67
2020/12/22 06:53:34;;;;;;;34.80;14.70;;;;;;;2.84;86.03;100362.26;1693603;83;25949;-66
2020/12/22 06:56:03;;;;;;;35.98;14.55;;;;;;;2.85;85.97;100352.09;1712010;81;26003;-67
2020/12/22 06:58:47;;;;;;;30.65;13.03;;;;;;;2.85;86.01;100353.42;1717323;80;25899;-67
2020/12/22 07:01:31;;;;;;;30.37;14.30;;;;;;;2.85;86.04;100342.37;1709440;82;26035;-67
2020/12/22 07:04:23;;;;;;;26.65;13.38;;;;;;;2.86;86.08;100338.84;1708438;81;25968;-67
2020/12/22 07:06:58;;;;;;;30.27;13.08;;;;;;;2.88;86.14;100326.45;1705343;82;27871;-66
2020/12/22 07:09:30;;;;;;;26.90;11.28;;;;;;;2.90;86.18;100330.39;1710642;80;26031;-67
2020/12/22 07:12:11;;;;;;;29.52;14.03;;;;;;;2.91;86.18;100317.12;1703235;81;25899;-67
2020/12/22 07:14:48;;;;;;;29.87;15.28;;;;;;;2.91;86.22;100317.12;1720986;80;26051;-66
2020/12/22 07:17:20;;;;;;;25.08;12.93;;;;;;;2.93;86.26;100318.42;1710993;80;25767;-66
2020/12/22 07:19:57;;;;;;;33.28;14.03;;;;;;;2.94;86.29;100299.87;1707658;81;28358;-66
2020/12/22 07:22:27;;;;;;;35.48;16.35;;;;;;;2.96;86.33;100305.14;1711596;80;26486;-67
2020/12/22 07:24:55;;;;;;;32.67;15.20;;;;;;;2.97;86.34;100305.56;1720448;81;25943;-67
2020/12/22 07:27:28;;;;;;;33.20;15.48;;;;;;;3.01;86.37;100305.05;1717618;80;25792;-67
2020/12/22 07:29:58;;;;;;;31.60;13.70;;;;;;;3.03;86.42;100297.50;1738783;81;25747;-67
2020/12/22 07:32:27;;;;;;;30.02;14.30;;;;;;;3.05;86.41;100295.70;1723104;82;27493;-68
2020/12/22 07:34:56;;;;;;;30.02;14.25;;;;;;;3.06;86.44;100300.09;1723073;82;25897;-67
2020/12/22 07:37:28;;;;;;;28.55;13.95;;;;;;;3.07;86.49;100302.30;1723022;82;25881;-68
2020/12/22 07:39:57;;;;;;;26.75;13.20;;;;;;;3.09;86.48;100301.81;1723055;82;26129;-69
2020/12/22 07:42:27;;;;;;;31.35;13.95;;;;;;;3.10;86.52;100295.17;1722939;82;25757;-68
2020/12/22 07:45:01;;;;;;;30.90;15.80;;;;;;;3.11;86.54;100296.04;1723251;82;27597;-69
2020/12/22 07:47:30;;;;;;;38.30;16.07;;;;;;;3.12;86.55;100297.34;1722942;82;25796;-68
2020/12/22 07:50:16;;;;;;;33.98;15.18;;;;;;;3.14;86.57;100293.34;1723034;82;25737;-69
2020/12/22 07:52:47;;;;;;;36.00;16.15;;;;;;;3.14;86.61;100298.63;1723066;82;26052;-67
2020/12/22 07:58:04;;;;;;;27.60;13.40;;;;;;;3.16;86.68;100302.13;1676779;83;28529;-68
2020/12/22 08:00:32;;;;;;;38.45;16.73;;;;;;;3.17;86.67;100297.25;1714312;82;26499;-68
2020/12/22 08:03:17;;;;;;;36.10;16.05;;;;;;;3.17;86.76;100297.25;1684592;83;25891;-68
2020/12/22 08:06:02;;;;;;;38.15;16.50;;;;;;;3.16;86.66;100295.50;1693662;82;25956;-68
2020/12/22 08:08:31;;;;;;;40.17;17.65;;;;;;;3.17;86.70;100291.50;1714553;82;25831;-71
2020/12/22 08:10:59;;;;;;;51.20;18.87;;;;;;;3.18;86.69;100284.44;1682735;83;25970;-71
2020/12/22 08:13:32;;;;;;;42.80;19.75;;;;;;;3.18;86.71;100282.66;1692428;81;25982;-71
2020/12/22 08:16:00;;;;;;;46.35;19.85;;;;;;;3.19;86.73;100272.94;1669840;84;25958;-70
2020/12/22 08:18:31;;;;;;;48.52;21.95;;;;;;;3.19;86.75;100271.61;1675697;82;26561;-70
2020/12/22 08:21:01;;;;;;;47.93;20.15;;;;;;;3.21;86.76;100264.51;1691737;83;25852;-70
2020/12/22 08:23:29;;;;;;;43.78;18.45;;;;;;;3.21;86.82;100273.78;1683469;82;27762;-70
2020/12/22 08:25:58;;;;;;;42.78;19.50;;;;;;;3.21;86.82;100267.16;1649577;84;26172;-69
2020/12/22 08:28:26;;;;;;;49.27;23.50;;;;;;;3.22;86.84;100256.98;1695417;82;26191;-70
2020/12/22 08:30:55;;;;;;;51.02;22.62;;;;;;;3.23;86.86;100258.28;1702195;82;25788;-70
2020/12/22 08:33:23;;;;;;;39.40;17.32;;;;;;;3.24;86.89;100248.56;1684504;83;25924;-71
2020/12/22 08:35:51;;;;;;;43.78;20.85;;;;;;;3.24;86.85;100249.43;1682305;82;27374;-71
2020/12/22 08:38:24;;;;;;;55.63;27.55;;;;;;;3.26;86.85;100241.45;1689865;82;26093;-71
2020/12/22 08:40:55;;;;;;;55.65;25.20;;;;;;;3.25;86.88;100232.64;1683197;83;25899;-72
2020/12/22 08:43:24;;;;;;;47.85;23.62;;;;;;;3.27;86.89;100233.93;1685590;82;26008;-71
2020/12/22 08:45:52;;;;;;;45.43;22.22;;;;;;;3.29;86.94;100232.12;1689986;82;25959;-71
2020/12/22 08:48:21;;;;;;;37.30;17.95;;;;;;;3.30;86.92;100218.43;1710900;82;26266;-70
2020/12/22 08:50:51;;;;;;;38.70;17.98;;;;;;;3.31;86.98;100218.39;1693783;82;25916;-70
2020/12/22 08:53:19;;;;;;;43.00;18.65;;;;;;;3.33;86.98;100217.91;1675787;82;25913;-70
2020/12/22 08:55:47;;;;;;;41.48;19.10;;;;;;;3.35;86.98;100212.58;1657656;84;25990;-70
2020/12/22 08:58:14;;;;;;;40.98;20.88;;;;;;;3.37;87.08;100204.16;1660651;85;25897;-70
2020/12/22 09:00:42;;;;;;;41.35;19.20;;;;;;;3.40;87.08;100201.44;1664594;84;27701;-70
2020/12/22 09:03:10;;;;;;;30.57;15.78;;;;;;;3.42;87.10;100195.20;1671159;84;25927;-70
2020/12/22 09:05:38;;;;;;;35.08;16.75;;;;;;;3.45;87.04;100206.19;1650834;84;25887;-70
2020/12/22 09:08:07;;;;;;;55.98;27.02;;;;;;;3.45;87.11;100185.00;1667938;84;26528;-69
2020/12/22 09:10:48;;;;;;;40.35;17.52;;;;;;;3.43;87.16;100177.53;1650714;84;26008;-69
2020/12/22 09:13:16;;;;;;;32.65;15.85;;;;;;;3.51;87.21;100186.19;1660884;84;27178;-69
2020/12/22 09:15:55;;;;;;;34.80;16.12;;;;;;;3.54;87.21;100176.39;1656847;84;25951;-69
2020/12/22 09:18:23;;;;;;;36.33;18.62;;;;;;;3.55;87.20;100170.19;1692409;83;25412;-70
2020/12/22 09:21:09;;;;;;;29.15;13.43;;;;;;;3.57;87.24;100175.45;1647914;85;26570;-69
2020/12/22 09:23:44;;;;;;;29.37;15.05;;;;;;;3.59;87.25;100165.23;1673765;84;25830;-70
2020/12/22 09:26:12;;;;;;;35.45;17.37;;;;;;;3.62;87.33;100158.13;1653489;85;27441;-68
2020/12/22 09:28:40;;;;;;;31.33;15.70;;;;;;;3.64;87.37;100152.34;1677003;83;26194;-67
2020/12/22 09:31:09;;;;;;;30.75;15.23;;;;;;;3.66;87.40;100158.02;1685177;84;25836;-67
2020/12/22 09:33:37;;;;;;;29.00;15.93;;;;;;;3.68;87.36;100147.38;1686780;83;26363;-67
2020/12/22 09:36:09;;;;;;;30.45;15.80;;;;;;;3.71;87.37;100151.28;1680944;83;26205;-67
2020/12/22 09:38:37;;;;;;;32.67;16.67;;;;;;;3.73;87.42;100153.45;1679125;83;28150;-67
2020/12/22 09:41:04;;;;;;;30.55;15.23;;;;;;;3.78;87.46;100144.94;1654609;84;26494;-67
2020/12/22 09:43:32;;;;;;;28.87;14.40;;;;;;;3.79;87.43;100132.09;1669173;83;25849;-67
2020/12/22 09:46:00;;;;;;;28.57;14.60;;;;;;;3.83;87.48;100128.47;1681104;83;26083;-67
2020/12/22 09:48:27;;;;;;;26.65;13.53;;;;;;;3.86;87.50;100120.44;1663639;84;25990;-68
2020/12/22 09:50:55;;;;;;;29.12;13.40;;;;;;;3.92;87.59;100114.98;1663698;84;28073;-68
2020/12/22 09:53:23;;;;;;;31.50;13.15;;;;;;;3.97;87.56;100114.87;1663753;84;25848;-69
2020/12/22 09:55:51;;;;;;;26.37;12.73;;;;;;;4.00;87.74;100112.14;1657121;84;25865;-69
2020/12/22 09:58:18;;;;;;;24.40;13.48;;;;;;;4.05;87.65;100111.12;1649749;84;25831;-69
2020/12/22 10:00:46;;;;;;;29.37;14.35;;;;;;;4.10;87.68;100101.27;1679584;83;25951;-69
2020/12/22 10:03:14;;;;;;;25.37;12.73;;;;;;;4.15;87.71;100091.86;1670563;84;27391;-68
2020/12/22 10:05:41;;;;;;;26.50;12.75;;;;;;;4.20;87.75;100095.27;1646355;84;25946;-68
2020/12/22 10:08:10;;;;;;;26.70;11.43;;;;;;;4.24;87.76;100083.20;1653921;84;25828;-69
2020/12/22 10:10:37;;;;;;;26.87;13.28;;;;;;;4.28;87.90;100087.98;1646951;84;26159;-71
2020/12/22 10:13:05;;;;;;;28.95;12.73;;;;;;;4.33;87.77;100083.88;1654640;84;26546;-68
2020/12/22 10:15:33;;;;;;;26.90;13.78;;;;;;;4.36;87.83;100075.38;1666172;84;28194;-68
2020/12/22 10:18:00;;;;;;;26.77;12.98;;;;;;;4.40;87.82;100077.03;1680867;83;26422;-68
2020/12/22 10:20:28;;;;;;;27.85;13.45;;;;;;;4.46;87.84;100069.36;1679526;83;25846;-68
2020/12/22 10:22:56;;;;;;;27.65;12.98;;;;;;;4.47;87.88;100062.69;1687009;83;25961;-68
2020/12/22 10:25:23;;;;;;;23.98;11.73;;;;;;;4.51;87.96;100064.34;1682677;83;26844;-68
2020/12/22 10:27:51;;;;;;;28.45;12.73;;;;;;;4.55;88.07;100058.03;1677412;83;27638;-69
2020/12/22 10:30:19;;;;;;;24.87;12.70;;;;;;;4.58;87.98;100061.52;1688430;82;25841;-69
2020/12/22 10:32:48;;;;;;;27.10;13.62;;;;;;;4.60;87.95;100043.30;1693384;83;25869;-69
2020/12/22 10:35:15;;;;;;;24.55;11.60;;;;;;;4.63;87.99;100045.00;1645620;85;26542;-69
2020/12/22 10:37:43;;;;;;;25.75;11.60;;;;;;;4.64;88.06;100058.23;1648881;84;25852;-68
2020/12/22 10:40:11;;;;;;;27.95;13.55;;;;;;;4.68;88.09;100039.11;1670619;84;28523;-68
2020/12/22 10:42:38;;;;;;;25.97;13.25;;;;;;;4.71;88.08;100021.77;1674576;84;26069;-68
2020/12/22 10:45:06;;;;;;;27.40;13.55;;;;;;;4.72;88.16;100029.68;1664538;85;26118;-68
2020/12/22 10:47:34;;;;;;;27.90;12.93;;;;;;;4.76;88.11;100042.41;1639516;87;25737;-67
2020/12/22 10:50:02;;;;;;;26.23;12.50;;;;;;;4.77;88.13;100038.38;1664568;85;25770;-67
2020/12/22 10:52:30;;;;;;;20.85;11.28;;;;;;;4.81;88.12;100029.87;1639653;87;27875;-69
2020/12/22 10:54:59;;;;;;;19.85;10.85;;;;;;;4.83;88.15;100023.59;1667248;84;26076;-66
2020/12/22 10:57:29;;;;;;;28.77;13.38;;;;;;;4.85;88.11;100019.11;1663646;84;26072;-67
2020/12/22 10:59:56;;;;;;;28.35;13.83;;;;;;;4.89;88.16;100026.06;1659183;84;25970;-65
2020/12/22 11:02:24;;;;;;;25.27;11.10;;;;;;;4.92;88.24;100026.44;1669618;84;25867;-65
2020/12/22 11:04:54;;;;;;;19.52;9.75;;;;;;;4.95;88.19;100015.72;1622355;86;27917;-65
2020/12/22 11:07:47;;;;;;;27.40;12.10;;;;;;;4.98;88.22;100017.41;1632164;85;26742;-65
2020/12/22 11:09:53;;;;;;;23.50;11.22;;;;;;;5.02;88.25;100016.40;1623353;85;26654;-66
2020/12/22 11:12:20;;;;;;;18.77;9.20;;;;;;;5.05;88.30;100011.86;1670932;84;26309;-65
2020/12/22 11:14:48;;;;;;;15.48;9.93;;;;;;;5.10;88.30;100020.56;1649006;84;25826;-66
2020/12/22 11:17:16;;;;;;;18.82;10.43;;;;;;;5.15;88.30;100012.45;1657802;84;27597;-65
2020/12/22 11:19:44;;;;;;;18.37;10.53;;;;;;;5.18;88.55;99992.43;1663587;84;25989;-66
2020/12/22 11:22:12;;;;;;;19.50;9.50;;;;;;;5.23;88.35;100021.02;1610755;87;25815;-66
2020/12/22 11:24:40;;;;;;;15.05;8.63;;;;;;;5.28;88.35;100013.77;1657040;86;25717;-66
2020/12/22 11:27:08;;;;;;;21.62;10.48;;;;;;;5.32;88.35;99999.92;1618721;87;25747;-66
2020/12/22 11:29:36;;;;;;;17.30;9.45;;;;;;;5.36;88.42;100011.73;1642174;86;28460;-66
2020/12/22 11:32:03;;;;;;;16.40;8.93;;;;;;;5.42;88.51;100022.63;1618535;87;25706;-66
2020/12/22 11:34:31;;;;;;;13.40;8.35;;;;;;;5.47;88.45;100013.59;1641989;86;26007;-66